sensor_id;sensor_type;location;lat;lon;timestamp;pressure;altitude;pressure_sealevel;temperature;humidity
59545;BME280;45368;55.002;-1.592;2023-05-29T00:02:14;102277.69;;;13.88;44.65
59545;BME280;45368;55.002;-1.592;2023-05-29T00:04:41;102275.17;;;13.36;45.56
59545;BME280;45368;55.002;-1.592;2023-05-29T00:07:07;102275.69;;;13.38;46.19
59545;BME280;45368;55.002;-1.592;2023-05-29T00:09:34;102281.70;;;12.77;46.89
59545;BME280;45368;55.002;-1.592;2023-05-29T00:12:02;102283.93;;;12.74;47.39
59545;BME280;45368;55.002;-1.592;2023-05-29T00:14:30;102277.39;;;12.65;46.70
59545;BME280;45368;55.002;-1.592;2023-05-29T00:16:57;102285.03;;;11.95;48.75
59545;BME280;45368;55.002;-1.592;2023-05-29T00:19:24;102279.54;;;12.16;48.28
59545;BME280;45368;55.002;-1.592;2023-05-29T00:21:51;102276.66;;;12.52;47.88
59545;BME280;45368;55.002;-1.592;2023-05-29T00:24:18;102277.78;;;12.32;48.34
59545;BME280;45368;55.002;-1.592;2023-05-29T00:26:46;102275.98;;;12.33;48.18
59545;BME280;45368;55.002;-1.592;2023-05-29T00:29:13;102275.21;;;12.56;47.80
59545;BME280;45368;55.002;-1.592;2023-05-29T00:31:40;102279.84;;;12.44;47.85
59545;BME280;45368;55.002;-1.592;2023-05-29T00:34:07;102289.99;;;12.24;48.16
59545;BME280;45368;55.002;-1.592;2023-05-29T00:36:34;102290.28;;;12.18;48.62
59545;BME280;45368;55.002;-1.592;2023-05-29T00:39:02;102299.41;;;11.86;48.83
59545;BME280;45368;55.002;-1.592;2023-05-29T00:41:29;102297.18;;;11.34;49.90
59545;BME280;45368;55.002;-1.592;2023-05-29T00:43:56;102298.94;;;10.96;50.39
59545;BME280;45368;55.002;-1.592;2023-05-29T00:46:23;102303.61;;;11.07;51.22
59545;BME280;45368;55.002;-1.592;2023-05-29T00:48:51;102301.97;;;10.71;51.47
59545;BME280;45368;55.002;-1.592;2023-05-29T00:51:18;102300.60;;;11.00;50.34
59545;BME280;45368;55.002;-1.592;2023-05-29T00:53:46;102295.29;;;11.03;51.20
59545;BME280;45368;55.002;-1.592;2023-05-29T00:56:15;102291.08;;;10.47;52.30
59545;BME280;45368;55.002;-1.592;2023-05-29T00:58:44;102292.07;;;10.80;51.35
59545;BME280;45368;55.002;-1.592;2023-05-29T01:01:11;102292.21;;;10.88;51.40
59545;BME280;45368;55.002;-1.592;2023-05-29T01:03:39;102295.88;;;10.93;50.73
59545;BME280;45368;55.002;-1.592;2023-05-29T01:06:07;102296.91;;;11.00;51.04
59545;BME280;45368;55.002;-1.592;2023-05-29T01:08:34;102297.39;;;10.60;51.67
59545;BME280;45368;55.002;-1.592;2023-05-29T01:11:07;102299.16;;;10.71;51.52
59545;BME280;45368;55.002;-1.592;2023-05-29T01:13:38;102297.94;;;10.86;51.25
59545;BME280;45368;55.002;-1.592;2023-05-29T01:16:11;102306.80;;;9.54;53.82
59545;BME280;45368;55.002;-1.592;2023-05-29T01:18:45;102304.49;;;9.76;54.70
59545;BME280;45368;55.002;-1.592;2023-05-29T01:21:25;102305.08;;;9.52;55.08
59545;BME280;45368;55.002;-1.592;2023-05-29T01:24:01;102307.86;;;9.74;54.72
59545;BME280;45368;55.002;-1.592;2023-05-29T01:27:04;102308.42;;;9.63;54.40
59545;BME280;45368;55.002;-1.592;2023-05-29T01:29:34;102311.06;;;9.84;53.35
59545;BME280;45368;55.002;-1.592;2023-05-29T01:32:02;102310.50;;;9.51;54.12
59545;BME280;45368;55.002;-1.592;2023-05-29T01:34:30;102305.74;;;9.30;54.35
59545;BME280;45368;55.002;-1.592;2023-05-29T01:36:58;102303.48;;;9.80;53.22
59545;BME280;45368;55.002;-1.592;2023-05-29T01:39:25;102304.54;;;9.90;53.11
59545;BME280;45368;55.002;-1.592;2023-05-29T01:41:53;102299.63;;;9.92;53.15
59545;BME280;45368;55.002;-1.592;2023-05-29T01:44:22;102294.63;;;9.87;53.06
59545;BME280;45368;55.002;-1.592;2023-05-29T01:46:50;102291.83;;;10.19;52.43
59545;BME280;45368;55.002;-1.592;2023-05-29T01:49:18;102293.46;;;10.41;52.17
59545;BME280;45368;55.002;-1.592;2023-05-29T01:51:46;102295.53;;;10.23;51.93
59545;BME280;45368;55.002;-1.592;2023-05-29T01:54:13;102289.88;;;10.63;51.32
59545;BME280;45368;55.002;-1.592;2023-05-29T01:56:41;102291.70;;;10.69;50.81
59545;BME280;45368;55.002;-1.592;2023-05-29T01:59:10;102286.55;;;11.36;49.73
59545;BME280;45368;55.002;-1.592;2023-05-29T02:01:39;102284.81;;;11.40;49.30
59545;BME280;45368;55.002;-1.592;2023-05-29T02:04:06;102284.11;;;12.09;47.94
59545;BME280;45368;55.002;-1.592;2023-05-29T02:06:33;102286.57;;;11.23;49.43
59545;BME280;45368;55.002;-1.592;2023-05-29T02:09:00;102290.04;;;10.78;50.31
59545;BME280;45368;55.002;-1.592;2023-05-29T02:11:27;102289.52;;;11.27;49.73
59545;BME280;45368;55.002;-1.592;2023-05-29T02:13:55;102289.21;;;10.95;49.66
59545;BME280;45368;55.002;-1.592;2023-05-29T02:16:22;102291.32;;;10.39;50.70
59545;BME280;45368;55.002;-1.592;2023-05-29T02:19:54;102296.26;;;10.24;50.36
59545;BME280;45368;55.002;-1.592;2023-05-29T02:23:41;102296.97;;;9.95;51.05
59545;BME280;45368;55.002;-1.592;2023-05-29T02:26:08;102296.76;;;10.13;51.00
59545;BME280;45368;55.002;-1.592;2023-05-29T02:28:41;102296.95;;;10.66;50.00
59545;BME280;45368;55.002;-1.592;2023-05-29T02:31:07;102297.54;;;10.43;50.37
59545;BME280;45368;55.002;-1.592;2023-05-29T02:35:58;102309.23;;;10.38;52.16
59545;BME280;45368;55.002;-1.592;2023-05-29T02:38:36;102305.35;;;10.16;51.07
59545;BME280;45368;55.002;-1.592;2023-05-29T02:42:21;102309.80;;;10.42;51.43
59545;BME280;45368;55.002;-1.592;2023-05-29T02:44:48;102313.72;;;10.36;51.44
59545;BME280;45368;55.002;-1.592;2023-05-29T02:47:16;102321.48;;;10.03;51.85
59545;BME280;45368;55.002;-1.592;2023-05-29T02:49:43;102320.29;;;10.32;51.77
59545;BME280;45368;55.002;-1.592;2023-05-29T02:52:10;102319.94;;;10.02;51.70
59545;BME280;45368;55.002;-1.592;2023-05-29T02:54:37;102317.03;;;10.71;50.82
59545;BME280;45368;55.002;-1.592;2023-05-29T02:57:05;102319.96;;;10.44;50.65
59545;BME280;45368;55.002;-1.592;2023-05-29T02:59:32;102320.43;;;10.51;50.37
59545;BME280;45368;55.002;-1.592;2023-05-29T03:01:59;102308.13;;;11.70;48.36
59545;BME280;45368;55.002;-1.592;2023-05-29T03:04:27;102311.59;;;11.89;47.42
59545;BME280;45368;55.002;-1.592;2023-05-29T03:06:54;102312.64;;;11.95;47.17
59545;BME280;45368;55.002;-1.592;2023-05-29T03:09:21;102317.15;;;11.80;47.14
59545;BME280;45368;55.002;-1.592;2023-05-29T03:11:48;102321.31;;;11.41;48.75
59545;BME280;45368;55.002;-1.592;2023-05-29T03:14:15;102318.90;;;10.72;49.68
59545;BME280;45368;55.002;-1.592;2023-05-29T03:16:43;102319.21;;;11.37;49.12
59545;BME280;45368;55.002;-1.592;2023-05-29T03:19:10;102321.26;;;10.99;49.75
59545;BME280;45368;55.002;-1.592;2023-05-29T03:21:37;102325.89;;;9.88;51.78
59545;BME280;45368;55.002;-1.592;2023-05-29T03:24:05;102323.11;;;11.03;49.51
59545;BME280;45368;55.002;-1.592;2023-05-29T03:26:32;102322.65;;;10.83;49.54
59545;BME280;45368;55.002;-1.592;2023-05-29T03:28:59;102323.89;;;10.82;50.08
59545;BME280;45368;55.002;-1.592;2023-05-29T03:31:26;102325.29;;;10.54;50.71
59545;BME280;45368;55.002;-1.592;2023-05-29T03:33:53;102323.56;;;11.08;50.02
59545;BME280;45368;55.002;-1.592;2023-05-29T03:36:21;102328.74;;;8.76;53.83
59545;BME280;45368;55.002;-1.592;2023-05-29T03:38:48;102326.33;;;10.06;52.62
59545;BME280;45368;55.002;-1.592;2023-05-29T03:41:15;102329.59;;;9.83;52.73
59545;BME280;45368;55.002;-1.592;2023-05-29T03:43:42;102329.68;;;11.03;49.98
59545;BME280;45368;55.002;-1.592;2023-05-29T03:46:10;102336.49;;;10.37;51.00
59545;BME280;45368;55.002;-1.592;2023-05-29T03:48:37;102340.05;;;9.96;50.81
59545;BME280;45368;55.002;-1.592;2023-05-29T03:51:04;102338.31;;;10.45;50.93
59545;BME280;45368;55.002;-1.592;2023-05-29T03:53:32;102334.59;;;11.33;49.45
59545;BME280;45368;55.002;-1.592;2023-05-29T03:55:59;102334.20;;;10.87;49.91
59545;BME280;45368;55.002;-1.592;2023-05-29T03:58:27;102336.45;;;10.09;50.77
59545;BME280;45368;55.002;-1.592;2023-05-29T04:00:55;102341.41;;;10.11;50.91
59545;BME280;45368;55.002;-1.592;2023-05-29T04:03:22;102340.67;;;10.79;50.00
59545;BME280;45368;55.002;-1.592;2023-05-29T04:05:49;102344.04;;;10.65;50.43
59545;BME280;45368;55.002;-1.592;2023-05-29T04:08:17;102345.39;;;10.48;50.24
59545;BME280;45368;55.002;-1.592;2023-05-29T04:10:45;102344.57;;;10.16;51.68
59545;BME280;45368;55.002;-1.592;2023-05-29T04:13:11;102345.47;;;9.58;52.71
59545;BME280;45368;55.002;-1.592;2023-05-29T04:15:38;102350.17;;;8.46;54.79
59545;BME280;45368;55.002;-1.592;2023-05-29T04:18:05;102352.93;;;9.27;54.35
59545;BME280;45368;55.002;-1.592;2023-05-29T04:20:32;102351.61;;;9.33;52.79
59545;BME280;45368;55.002;-1.592;2023-05-29T04:22:59;102349.48;;;10.72;50.17
59545;BME280;45368;55.002;-1.592;2023-05-29T04:25:26;102354.35;;;9.72;51.71
59545;BME280;45368;55.002;-1.592;2023-05-29T04:27:54;102354.31;;;9.33;53.51
59545;BME280;45368;55.002;-1.592;2023-05-29T04:30:20;102364.82;;;8.64;55.06
59545;BME280;45368;55.002;-1.592;2023-05-29T04:32:47;102363.74;;;8.93;54.04
59545;BME280;45368;55.002;-1.592;2023-05-29T04:35:14;102362.28;;;10.45;51.44
59545;BME280;45368;55.002;-1.592;2023-05-29T04:37:42;102364.92;;;11.33;49.51
59545;BME280;45368;55.002;-1.592;2023-05-29T04:40:10;102367.08;;;11.35;48.82
59545;BME280;45368;55.002;-1.592;2023-05-29T04:42:38;102368.48;;;11.54;48.11
59545;BME280;45368;55.002;-1.592;2023-05-29T04:45:06;102361.68;;;12.03;47.48
59545;BME280;45368;55.002;-1.592;2023-05-29T04:47:34;102369.92;;;11.52;48.37
59545;BME280;45368;55.002;-1.592;2023-05-29T04:50:02;102375.25;;;11.74;47.81
59545;BME280;45368;55.002;-1.592;2023-05-29T04:52:29;102381.06;;;11.62;47.31
59545;BME280;45368;55.002;-1.592;2023-05-29T04:54:56;102391.43;;;10.12;49.95
59545;BME280;45368;55.002;-1.592;2023-05-29T04:57:23;102389.08;;;10.47;49.67
59545;BME280;45368;55.002;-1.592;2023-05-29T04:59:50;102387.70;;;10.77;49.25
59545;BME280;45368;55.002;-1.592;2023-05-29T05:02:17;102387.90;;;10.28;49.79
59545;BME280;45368;55.002;-1.592;2023-05-29T05:04:45;102384.06;;;11.57;48.18
59545;BME280;45368;55.002;-1.592;2023-05-29T05:07:11;102380.13;;;11.06;48.36
59545;BME280;45368;55.002;-1.592;2023-05-29T05:09:38;102390.20;;;9.12;52.80
59545;BME280;45368;55.002;-1.592;2023-05-29T05:12:06;102390.31;;;10.04;51.00
59545;BME280;45368;55.002;-1.592;2023-05-29T05:14:34;102394.12;;;9.29;52.90
59545;BME280;45368;55.002;-1.592;2023-05-29T05:17:01;102388.29;;;9.89;52.08
59545;BME280;45368;55.002;-1.592;2023-05-29T05:19:28;102388.14;;;9.87;51.97
59545;BME280;45368;55.002;-1.592;2023-05-29T05:21:56;102388.69;;;10.66;50.83
59545;BME280;45368;55.002;-1.592;2023-05-29T05:24:23;102391.89;;;9.13;53.06
59545;BME280;45368;55.002;-1.592;2023-05-29T05:26:49;102392.38;;;9.36;53.21
59545;BME280;45368;55.002;-1.592;2023-05-29T05:29:16;102389.43;;;8.71;54.43
59545;BME280;45368;55.002;-1.592;2023-05-29T05:31:44;102386.32;;;10.42;51.85
59545;BME280;45368;55.002;-1.592;2023-05-29T05:34:12;102380.67;;;11.48;49.29
59545;BME280;45368;55.002;-1.592;2023-05-29T05:36:38;102390.27;;;11.10;49.36
59545;BME280;45368;55.002;-1.592;2023-05-29T05:39:05;102387.87;;;11.38;49.26
59545;BME280;45368;55.002;-1.592;2023-05-29T05:41:32;102393.76;;;9.91;51.60
59545;BME280;45368;55.002;-1.592;2023-05-29T05:43:59;102400.93;;;11.30;49.72
59545;BME280;45368;55.002;-1.592;2023-05-29T05:46:26;102393.62;;;11.77;48.60
59545;BME280;45368;55.002;-1.592;2023-05-29T05:48:54;102396.80;;;11.27;48.84
59545;BME280;45368;55.002;-1.592;2023-05-29T05:51:21;102399.89;;;10.92;49.97
59545;BME280;45368;55.002;-1.592;2023-05-29T05:53:48;102401.69;;;10.99;50.33
59545;BME280;45368;55.002;-1.592;2023-05-29T05:56:15;102404.69;;;10.60;51.13
59545;BME280;45368;55.002;-1.592;2023-05-29T05:58:42;102405.78;;;10.65;50.66
59545;BME280;45368;55.002;-1.592;2023-05-29T06:01:08;102396.97;;;12.04;48.43
59545;BME280;45368;55.002;-1.592;2023-05-29T06:03:35;102394.79;;;12.37;47.31
59545;BME280;45368;55.002;-1.592;2023-05-29T06:06:03;102403.24;;;12.03;48.07
59545;BME280;45368;55.002;-1.592;2023-05-29T06:08:30;102407.91;;;11.48;48.25
59545;BME280;45368;55.002;-1.592;2023-05-29T06:10:57;102407.95;;;11.47;49.00
59545;BME280;45368;55.002;-1.592;2023-05-29T06:13:24;102409.05;;;11.41;48.50
59545;BME280;45368;55.002;-1.592;2023-05-29T06:15:51;102408.40;;;11.30;48.67
59545;BME280;45368;55.002;-1.592;2023-05-29T06:18:18;102413.47;;;11.02;50.59
59545;BME280;45368;55.002;-1.592;2023-05-29T06:20:46;102411.18;;;10.61;51.90
59545;BME280;45368;55.002;-1.592;2023-05-29T06:23:13;102410.61;;;10.77;50.46
59545;BME280;45368;55.002;-1.592;2023-05-29T06:25:40;102410.60;;;10.90;50.42
59545;BME280;45368;55.002;-1.592;2023-05-29T06:28:08;102412.62;;;10.86;49.62
59545;BME280;45368;55.002;-1.592;2023-05-29T06:30:35;102409.64;;;11.07;49.49
59545;BME280;45368;55.002;-1.592;2023-05-29T06:33:02;102409.56;;;10.86;50.23
59545;BME280;45368;55.002;-1.592;2023-05-29T06:35:30;102406.15;;;11.05;49.24
59545;BME280;45368;55.002;-1.592;2023-05-29T06:37:57;102405.87;;;11.69;47.57
59545;BME280;45368;55.002;-1.592;2023-05-29T06:40:29;102404.89;;;12.00;46.61
59545;BME280;45368;55.002;-1.592;2023-05-29T06:42:58;102408.80;;;12.55;46.51
59545;BME280;45368;55.002;-1.592;2023-05-29T06:47:47;102408.59;;;12.93;46.45
59545;BME280;45368;55.002;-1.592;2023-05-29T06:51:04;102403.24;;;13.56;43.87
59545;BME280;45368;55.002;-1.592;2023-05-29T06:59:04;102402.83;;;13.13;44.22
59545;BME280;45368;55.002;-1.592;2023-05-29T07:01:58;102400.03;;;13.81;43.41
59545;BME280;45368;55.002;-1.592;2023-05-29T07:04:35;102400.66;;;13.40;42.71
59545;BME280;45368;55.002;-1.592;2023-05-29T07:08:46;102401.25;;;14.16;42.47
59545;BME280;45368;55.002;-1.592;2023-05-29T07:11:13;102404.80;;;13.82;42.37
59545;BME280;45368;55.002;-1.592;2023-05-29T07:13:40;102402.24;;;14.24;42.36
59545;BME280;45368;55.002;-1.592;2023-05-29T07:16:07;102403.01;;;14.52;42.13
59545;BME280;45368;55.002;-1.592;2023-05-29T07:18:35;102402.91;;;14.93;41.42
59545;BME280;45368;55.002;-1.592;2023-05-29T07:21:03;102402.15;;;14.83;41.55
59545;BME280;45368;55.002;-1.592;2023-05-29T07:23:29;102401.26;;;14.95;40.69
59545;BME280;45368;55.002;-1.592;2023-05-29T07:25:56;102397.27;;;14.66;40.64
59545;BME280;45368;55.002;-1.592;2023-05-29T07:28:23;102397.33;;;15.14;40.14
59545;BME280;45368;55.002;-1.592;2023-05-29T07:30:50;102400.96;;;14.60;40.18
59545;BME280;45368;55.002;-1.592;2023-05-29T07:33:19;102395.57;;;15.90;38.78
59545;BME280;45368;55.002;-1.592;2023-05-29T07:35:46;102399.18;;;15.29;39.43
59545;BME280;45368;55.002;-1.592;2023-05-29T07:38:13;102397.57;;;15.86;38.78
59545;BME280;45368;55.002;-1.592;2023-05-29T07:40:40;102394.12;;;16.56;37.86
59545;BME280;45368;55.002;-1.592;2023-05-29T07:43:07;102397.44;;;16.46;37.84
59545;BME280;45368;55.002;-1.592;2023-05-29T07:45:34;102391.77;;;17.53;36.86
59545;BME280;45368;55.002;-1.592;2023-05-29T07:48:00;102389.59;;;17.15;35.53
59545;BME280;45368;55.002;-1.592;2023-05-29T07:50:27;102387.26;;;17.88;34.96
59545;BME280;45368;55.002;-1.592;2023-05-29T07:52:55;102386.96;;;18.74;34.32
59545;BME280;45368;55.002;-1.592;2023-05-29T07:55:22;102381.53;;;18.57;32.39
59545;BME280;45368;55.002;-1.592;2023-05-29T07:57:50;102381.48;;;19.75;30.04
59545;BME280;45368;55.002;-1.592;2023-05-29T08:00:18;102383.72;;;18.83;30.15
59545;BME280;45368;55.002;-1.592;2023-05-29T08:02:45;102384.84;;;20.33;29.23
59545;BME280;45368;55.002;-1.592;2023-05-29T08:05:13;102385.81;;;19.61;30.17
59545;BME280;45368;55.002;-1.592;2023-05-29T08:07:40;102384.52;;;19.40;30.24
59545;BME280;45368;55.002;-1.592;2023-05-29T08:10:08;102387.44;;;18.46;30.89
59545;BME280;45368;55.002;-1.592;2023-05-29T08:12:35;102388.34;;;17.89;31.94
59545;BME280;45368;55.002;-1.592;2023-05-29T08:15:03;102389.48;;;18.31;32.32
59545;BME280;45368;55.002;-1.592;2023-05-29T08:17:30;102393.62;;;17.54;33.76
59545;BME280;45368;55.002;-1.592;2023-05-29T08:19:57;102400.90;;;17.57;34.35
59545;BME280;45368;55.002;-1.592;2023-05-29T08:22:28;102394.39;;;17.94;34.29
59545;BME280;45368;55.002;-1.592;2023-05-29T08:24:56;102396.04;;;18.01;34.43
59545;BME280;45368;55.002;-1.592;2023-05-29T08:27:23;102398.85;;;18.07;33.70
59545;BME280;45368;55.002;-1.592;2023-05-29T08:29:50;102394.52;;;18.48;33.34
59545;BME280;45368;55.002;-1.592;2023-05-29T08:32:18;102396.91;;;18.88;33.37
59545;BME280;45368;55.002;-1.592;2023-05-29T08:34:46;102402.88;;;18.26;33.30
59545;BME280;45368;55.002;-1.592;2023-05-29T08:37:13;102406.44;;;18.38;33.39
59545;BME280;45368;55.002;-1.592;2023-05-29T08:39:40;102407.88;;;19.73;32.67
59545;BME280;45368;55.002;-1.592;2023-05-29T08:42:12;102407.77;;;20.64;30.35
59545;BME280;45368;55.002;-1.592;2023-05-29T08:44:40;102402.26;;;21.57;28.68
59545;BME280;45368;55.002;-1.592;2023-05-29T08:47:08;102406.83;;;21.46;28.82
59545;BME280;45368;55.002;-1.592;2023-05-29T08:49:41;102408.54;;;20.81;27.71
59545;BME280;45368;55.002;-1.592;2023-05-29T08:52:12;102406.50;;;21.18;28.89
59545;BME280;45368;55.002;-1.592;2023-05-29T08:54:44;102407.78;;;21.11;28.41
59545;BME280;45368;55.002;-1.592;2023-05-29T08:57:11;102410.87;;;20.39;29.99
59545;BME280;45368;55.002;-1.592;2023-05-29T08:59:42;102415.55;;;20.33;29.45
59545;BME280;45368;55.002;-1.592;2023-05-29T09:02:10;102414.16;;;20.51;29.75
59545;BME280;45368;55.002;-1.592;2023-05-29T09:04:40;102414.06;;;19.32;30.27
59545;BME280;45368;55.002;-1.592;2023-05-29T09:07:08;102420.33;;;19.38;31.15
59545;BME280;45368;55.002;-1.592;2023-05-29T09:09:35;102418.06;;;19.85;30.29
59545;BME280;45368;55.002;-1.592;2023-05-29T09:12:03;102417.22;;;19.29;30.45
59545;BME280;45368;55.002;-1.592;2023-05-29T09:14:35;102424.27;;;16.09;35.71
59545;BME280;45368;55.002;-1.592;2023-05-29T09:17:02;102419.58;;;17.02;35.62
59545;BME280;45368;55.002;-1.592;2023-05-29T09:19:30;102418.47;;;16.19;36.63
59545;BME280;45368;55.002;-1.592;2023-05-29T09:22:04;102418.36;;;16.24;36.08
59545;BME280;45368;55.002;-1.592;2023-05-29T09:24:33;102412.00;;;17.41;34.46
59545;BME280;45368;55.002;-1.592;2023-05-29T09:27:01;102415.36;;;17.53;35.54
59545;BME280;45368;55.002;-1.592;2023-05-29T09:29:31;102415.00;;;17.42;34.85
59545;BME280;45368;55.002;-1.592;2023-05-29T09:31:58;102415.96;;;17.20;34.63
59545;BME280;45368;55.002;-1.592;2023-05-29T09:34:25;102412.48;;;17.65;34.55
59545;BME280;45368;55.002;-1.592;2023-05-29T09:36:53;102414.44;;;16.08;35.32
59545;BME280;45368;55.002;-1.592;2023-05-29T09:39:20;102409.64;;;17.21;34.31
59545;BME280;45368;55.002;-1.592;2023-05-29T09:41:47;102416.08;;;16.35;36.54
59545;BME280;45368;55.002;-1.592;2023-05-29T09:44:15;102424.23;;;15.33;38.20
59545;BME280;45368;55.002;-1.592;2023-05-29T09:46:43;102416.82;;;17.07;35.50
59545;BME280;45368;55.002;-1.592;2023-05-29T09:49:13;102422.80;;;15.78;36.51
59545;BME280;45368;55.002;-1.592;2023-05-29T09:51:41;102414.02;;;17.49;36.23
59545;BME280;45368;55.002;-1.592;2023-05-29T09:54:16;102418.14;;;15.86;37.73
59545;BME280;45368;55.002;-1.592;2023-05-29T09:56:44;102414.94;;;16.26;37.98
59545;BME280;45368;55.002;-1.592;2023-05-29T09:59:14;102410.74;;;16.92;37.54
59545;BME280;45368;55.002;-1.592;2023-05-29T10:01:43;102411.54;;;16.50;37.65
59545;BME280;45368;55.002;-1.592;2023-05-29T10:04:10;102405.56;;;17.09;36.86
59545;BME280;45368;55.002;-1.592;2023-05-29T10:06:40;102402.42;;;17.66;36.04
59545;BME280;45368;55.002;-1.592;2023-05-29T10:09:10;102404.05;;;17.00;36.25
59545;BME280;45368;55.002;-1.592;2023-05-29T10:11:43;102398.89;;;17.65;34.91
59545;BME280;45368;55.002;-1.592;2023-05-29T10:14:14;102405.00;;;17.04;35.72
59545;BME280;45368;55.002;-1.592;2023-05-29T10:16:43;102403.22;;;16.87;35.82
59545;BME280;45368;55.002;-1.592;2023-05-29T10:19:13;102396.84;;;16.60;36.91
59545;BME280;45368;55.002;-1.592;2023-05-29T10:21:43;102396.68;;;16.97;36.59
59545;BME280;45368;55.002;-1.592;2023-05-29T10:24:11;102400.24;;;16.76;36.46
59545;BME280;45368;55.002;-1.592;2023-05-29T10:26:40;102400.08;;;16.03;37.21
59545;BME280;45368;55.002;-1.592;2023-05-29T10:29:15;102397.67;;;17.06;35.61
59545;BME280;45368;55.002;-1.592;2023-05-29T10:31:59;102395.79;;;16.95;35.92
59545;BME280;45368;55.002;-1.592;2023-05-29T10:34:41;102399.77;;;16.54;37.58
59545;BME280;45368;55.002;-1.592;2023-05-29T10:37:22;102402.50;;;15.83;37.20
59545;BME280;45368;55.002;-1.592;2023-05-29T10:39:52;102404.96;;;16.42;37.77
59545;BME280;45368;55.002;-1.592;2023-05-29T10:42:52;102407.51;;;15.72;37.01
59545;BME280;45368;55.002;-1.592;2023-05-29T10:45:52;102398.03;;;16.82;37.08
59545;BME280;45368;55.002;-1.592;2023-05-29T10:48:54;102401.46;;;16.75;35.89
59545;BME280;45368;55.002;-1.592;2023-05-29T10:51:26;102399.20;;;16.63;36.32
59545;BME280;45368;55.002;-1.592;2023-05-29T10:53:54;102393.05;;;17.60;35.22
59545;BME280;45368;55.002;-1.592;2023-05-29T10:56:23;102393.87;;;19.57;33.70
59545;BME280;45368;55.002;-1.592;2023-05-29T10:58:58;102388.57;;;21.28;29.57
59545;BME280;45368;55.002;-1.592;2023-05-29T11:01:28;102377.11;;;23.56;27.61
59545;BME280;45368;55.002;-1.592;2023-05-29T11:05:05;102370.63;;;24.78;25.56
59545;BME280;45368;55.002;-1.592;2023-05-29T11:07:32;102361.48;;;27.46;22.63
59545;BME280;45368;55.002;-1.592;2023-05-29T11:10:13;102358.76;;;29.02;20.89
59545;BME280;45368;55.002;-1.592;2023-05-29T11:13:34;102350.15;;;30.56;18.68
59545;BME280;45368;55.002;-1.592;2023-05-29T11:16:11;102358.11;;;26.43;21.76
59545;BME280;45368;55.002;-1.592;2023-05-29T11:18:48;102360.55;;;26.69;22.47
59545;BME280;45368;55.002;-1.592;2023-05-29T11:23:32;102352.19;;;28.59;21.08
59545;BME280;45368;55.002;-1.592;2023-05-29T11:26:05;102353.09;;;26.51;22.89
59545;BME280;45368;55.002;-1.592;2023-05-29T11:28:35;102359.62;;;25.37;23.48
59545;BME280;45368;55.002;-1.592;2023-05-29T11:31:34;102349.56;;;27.12;22.43
59545;BME280;45368;55.002;-1.592;2023-05-29T11:34:14;102350.35;;;27.49;21.80
59545;BME280;45368;55.002;-1.592;2023-05-29T11:36:50;102346.45;;;27.70;22.29
59545;BME280;45368;55.002;-1.592;2023-05-29T11:39:24;102341.23;;;28.91;20.90
59545;BME280;45368;55.002;-1.592;2023-05-29T11:41:56;102342.11;;;27.57;21.56
59545;BME280;45368;55.002;-1.592;2023-05-29T11:44:24;102349.20;;;26.00;23.16
59545;BME280;45368;55.002;-1.592;2023-05-29T11:47:00;102342.56;;;28.49;20.98
59545;BME280;45368;55.002;-1.592;2023-05-29T11:49:28;102342.48;;;27.42;21.30
59545;BME280;45368;55.002;-1.592;2023-05-29T11:52:05;102346.39;;;25.40;23.30
59545;BME280;45368;55.002;-1.592;2023-05-29T11:54:33;102352.91;;;23.89;25.05
59545;BME280;45368;55.002;-1.592;2023-05-29T11:57:00;102353.99;;;22.29;27.31
59545;BME280;45368;55.002;-1.592;2023-05-29T11:59:28;102365.43;;;19.96;30.61
59545;BME280;45368;55.002;-1.592;2023-05-29T12:01:56;102372.06;;;17.50;33.96
59545;BME280;45368;55.002;-1.592;2023-05-29T12:04:24;102370.63;;;17.43;35.04
59545;BME280;45368;55.002;-1.592;2023-05-29T12:06:50;102371.09;;;17.84;34.70
59545;BME280;45368;55.002;-1.592;2023-05-29T12:09:26;102367.91;;;17.85;34.43
59545;BME280;45368;55.002;-1.592;2023-05-29T12:12:00;102366.10;;;18.45;33.65
59545;BME280;45368;55.002;-1.592;2023-05-29T12:14:27;102364.83;;;18.43;33.71
59545;BME280;45368;55.002;-1.592;2023-05-29T12:16:54;102367.80;;;17.72;35.86
59545;BME280;45368;55.002;-1.592;2023-05-29T12:19:22;102367.76;;;17.98;34.60
59545;BME280;45368;55.002;-1.592;2023-05-29T12:21:49;102366.02;;;18.04;34.65
59545;BME280;45368;55.002;-1.592;2023-05-29T12:24:20;102371.02;;;18.02;34.62
59545;BME280;45368;55.002;-1.592;2023-05-29T12:26:47;102367.76;;;17.75;35.48
59545;BME280;45368;55.002;-1.592;2023-05-29T12:29:17;102364.75;;;18.17;33.99
59545;BME280;45368;55.002;-1.592;2023-05-29T12:31:44;102362.97;;;17.71;35.47
59545;BME280;45368;55.002;-1.592;2023-05-29T12:34:12;102355.29;;;18.17;34.33
59545;BME280;45368;55.002;-1.592;2023-05-29T12:36:40;102358.83;;;17.60;35.47
59545;BME280;45368;55.002;-1.592;2023-05-29T12:39:07;102356.24;;;18.88;33.73
59545;BME280;45368;55.002;-1.592;2023-05-29T12:41:36;102354.01;;;18.11;33.93
59545;BME280;45368;55.002;-1.592;2023-05-29T12:44:05;102357.38;;;18.06;34.56
59545;BME280;45368;55.002;-1.592;2023-05-29T12:46:37;102364.69;;;17.12;36.55
59545;BME280;45368;55.002;-1.592;2023-05-29T12:49:12;102361.87;;;18.34;34.26
59545;BME280;45368;55.002;-1.592;2023-05-29T12:51:41;102362.88;;;16.48;36.02
59545;BME280;45368;55.002;-1.592;2023-05-29T12:54:09;102355.70;;;17.71;36.06
59545;BME280;45368;55.002;-1.592;2023-05-29T12:56:36;102355.47;;;18.11;34.69
59545;BME280;45368;55.002;-1.592;2023-05-29T12:59:04;102356.27;;;18.09;35.29
59545;BME280;45368;55.002;-1.592;2023-05-29T13:01:31;102356.46;;;18.78;33.27
59545;BME280;45368;55.002;-1.592;2023-05-29T13:03:59;102353.84;;;18.55;33.40
59545;BME280;45368;55.002;-1.592;2023-05-29T13:06:26;102354.94;;;18.02;34.97
59545;BME280;45368;55.002;-1.592;2023-05-29T13:08:54;102355.60;;;16.90;36.29
59545;BME280;45368;55.002;-1.592;2023-05-29T13:11:21;102353.08;;;18.69;33.87